createdAt,value
2022-08-19T00:00:55.069Z,998.36
2022-08-19T00:01:55.149Z,998.39
2022-08-19T00:02:55.597Z,998.38
2022-08-19T00:03:55.315Z,998.35
2022-08-19T00:04:55.417Z,998.33
2022-08-19T00:05:55.466Z,998.35
2022-08-19T00:06:55.550Z,998.35
2022-08-19T00:07:55.633Z,998.34
2022-08-19T00:08:55.757Z,998.34
2022-08-19T00:09:56.866Z,998.35
2022-08-19T00:10:55.890Z,998.37
2022-08-19T00:11:55.950Z,998.36
2022-08-19T00:12:56.071Z,998.33
2022-08-19T00:13:56.339Z,998.36
2022-08-19T00:14:56.234Z,998.39
2022-08-19T00:15:56.308Z,998.39
2022-08-19T00:16:56.418Z,998.37
2022-08-19T00:17:56.490Z,998.44
2022-08-19T00:18:56.709Z,998.44
2022-08-19T00:19:56.667Z,998.46
2022-08-19T00:20:56.768Z,998.47
2022-08-19T00:21:56.839Z,998.47
2022-08-19T00:22:56.942Z,998.49
2022-08-19T00:23:57.029Z,998.48
2022-08-19T00:24:57.102Z,998.45
2022-08-19T00:25:57.182Z,998.44
2022-08-19T00:26:57.276Z,998.44
2022-08-19T00:27:57.364Z,998.42
2022-08-19T00:28:57.442Z,998.44
2022-08-19T00:29:57.525Z,998.41
2022-08-19T00:30:57.627Z,998.41
2022-08-19T00:31:57.702Z,998.40
2022-08-19T00:32:57.807Z,998.44
2022-08-19T00:33:57.898Z,998.40
2022-08-19T00:34:57.978Z,998.39
2022-08-19T00:35:58.054Z,998.36
2022-08-19T00:36:58.159Z,998.38
2022-08-19T00:37:58.236Z,998.39
2022-08-19T00:38:58.364Z,998.38
2022-08-19T00:39:58.431Z,998.41
2022-08-19T00:40:58.499Z,998.40
2022-08-19T00:41:58.575Z,998.40
2022-08-19T00:42:58.666Z,998.41
2022-08-19T00:43:58.861Z,998.41
2022-08-19T00:44:58.841Z,998.40
2022-08-19T00:45:58.953Z,998.40
2022-08-19T00:46:58.999Z,998.41
2022-08-19T00:47:59.096Z,998.40
2022-08-19T00:48:59.188Z,998.42
2022-08-19T00:49:59.261Z,998.40
2022-08-19T00:50:59.337Z,998.38
2022-08-19T00:51:59.439Z,998.41
2022-08-19T00:52:59.511Z,998.48
2022-08-19T00:53:59.639Z,998.48
2022-08-19T00:54:59.667Z,998.51
2022-08-19T00:55:59.771Z,998.53
2022-08-19T00:56:59.857Z,998.54
2022-08-19T00:57:59.957Z,998.53
2022-08-19T00:59:00.044Z,998.55
2022-08-19T01:00:02.194Z,998.53
2022-08-19T01:01:00.179Z,998.51
2022-08-19T01:02:00.306Z,998.50
2022-08-19T01:03:00.355Z,998.53
2022-08-19T01:04:00.471Z,998.50
2022-08-19T01:05:00.532Z,998.50
2022-08-19T01:06:00.638Z,998.52
2022-08-19T01:07:00.717Z,998.50
2022-08-19T01:08:00.818Z,998.51
2022-08-19T01:09:00.915Z,998.51
2022-08-19T01:10:00.987Z,998.50
2022-08-19T01:11:01.067Z,998.54
2022-08-19T01:12:01.169Z,998.52
2022-08-19T01:13:01.248Z,998.50
2022-08-19T01:14:01.364Z,998.47
2022-08-19T01:15:01.423Z,998.44
2022-08-19T01:16:01.531Z,998.38
2022-08-19T01:17:01.607Z,998.41
2022-08-19T01:18:01.714Z,998.34
2022-08-19T01:19:01.816Z,998.33
2022-08-19T01:20:01.884Z,998.35
2022-08-19T01:21:01.961Z,998.30
2022-08-19T01:22:13.963Z,998.27
2022-08-19T01:23:02.153Z,998.30
2022-08-19T01:24:02.265Z,998.28
2022-08-19T01:25:02.323Z,998.26
2022-08-19T01:26:02.382Z,998.26
2022-08-19T01:27:02.457Z,998.24
2022-08-19T01:28:09.267Z,998.29
2022-08-19T01:29:02.658Z,998.31
2022-08-19T01:30:02.704Z,998.32
2022-08-19T01:31:08.132Z,998.30
2022-08-19T01:32:02.881Z,998.27
2022-08-19T01:33:02.944Z,998.24
2022-08-19T01:34:04.794Z,998.25
2022-08-19T01:35:03.212Z,998.24
2022-08-19T01:36:03.187Z,998.21
2022-08-19T01:37:03.252Z,998.18
2022-08-19T01:38:03.362Z,998.20
2022-08-19T01:39:03.451Z,998.20
2022-08-19T01:40:08.868Z,998.21
2022-08-19T01:41:03.611Z,998.16
2022-08-19T01:42:03.711Z,998.19
2022-08-19T01:43:03.783Z,998.19
2022-08-19T01:44:17.996Z,998.15
2022-08-19T01:45:04.000Z,998.17
2022-08-19T01:46:04.068Z,998.15
2022-08-19T01:47:04.144Z,998.15
2022-08-19T01:48:04.250Z,998.13
2022-08-19T01:49:04.325Z,998.13
2022-08-19T01:50:04.457Z,998.10
2022-08-19T01:51:04.504Z,998.15
2022-08-19T01:52:04.590Z,998.13
2022-08-19T01:53:06.753Z,998.15
2022-08-19T01:54:04.762Z,998.16
2022-08-19T01:55:04.866Z,998.18
2022-08-19T01:56:04.933Z,998.23
2022-08-19T01:57:05.012Z,998.18
2022-08-19T01:58:05.119Z,998.21
2022-08-19T01:59:05.190Z,998.19
2022-08-19T02:00:05.312Z,998.19
2022-08-19T02:01:05.413Z,998.21
2022-08-19T02:02:05.439Z,998.24
2022-08-19T02:03:05.514Z,998.24
2022-08-19T02:04:05.622Z,998.21
2022-08-19T02:05:05.710Z,998.19
2022-08-19T02:06:05.785Z,998.21
2022-08-19T02:07:05.861Z,998.26
2022-08-19T02:08:05.962Z,998.27
2022-08-19T02:09:06.037Z,998.27
2022-08-19T02:10:08.921Z,998.27
2022-08-19T02:11:06.208Z,998.25
2022-08-19T02:12:06.276Z,998.28
2022-08-19T02:13:06.356Z,998.25
2022-08-19T02:14:06.458Z,998.27
2022-08-19T02:15:06.550Z,998.22
2022-08-19T02:16:06.623Z,998.26
2022-08-19T02:17:06.699Z,998.26
2022-08-19T02:18:06.801Z,998.29
2022-08-19T02:19:06.861Z,998.30
2022-08-19T02:20:06.982Z,998.24
2022-08-19T02:21:07.018Z,998.24
2022-08-19T02:22:07.126Z,998.24
2022-08-19T02:23:13.604Z,998.23
2022-08-19T02:24:07.307Z,998.25
2022-08-19T02:25:07.391Z,998.21
2022-08-19T02:26:07.450Z,998.18
2022-08-19T02:27:07.514Z,998.21
2022-08-19T02:28:07.620Z,998.22
2022-08-19T02:29:07.733Z,998.19
2022-08-19T02:30:07.807Z,998.20
2022-08-19T02:31:07.843Z,998.21
2022-08-19T02:32:07.947Z,998.19
2022-08-19T02:33:08.029Z,998.21
2022-08-19T02:34:08.128Z,998.25
2022-08-19T02:35:12.222Z,998.22
2022-08-19T02:36:08.302Z,998.21
2022-08-19T02:37:08.378Z,998.24
2022-08-19T02:38:08.481Z,998.22
2022-08-19T02:39:08.556Z,998.23
2022-08-19T02:40:12.258Z,998.25
2022-08-19T02:41:08.712Z,998.30
2022-08-19T02:42:08.814Z,998.25
2022-08-19T02:43:08.894Z,998.27
2022-08-19T02:44:29.566Z,998.23
2022-08-19T02:45:09.112Z,998.24
2022-08-19T02:46:09.174Z,998.22
2022-08-19T02:47:09.237Z,998.24
2022-08-19T02:48:14.953Z,998.23
2022-08-19T02:49:09.417Z,998.25
2022-08-19T02:50:09.534Z,998.26
2022-08-19T02:51:09.572Z,998.25
2022-08-19T02:52:09.675Z,998.25
2022-08-19T02:53:09.760Z,998.25
2022-08-19T02:54:09.867Z,998.26
2022-08-19T02:55:09.961Z,998.23
2022-08-19T02:56:10.034Z,998.25
2022-08-19T02:57:10.109Z,998.26
2022-08-19T02:58:10.219Z,998.27
2022-08-19T02:59:11.102Z,998.29
2022-08-19T03:00:10.387Z,998.29
2022-08-19T03:01:10.478Z,998.31
2022-08-19T03:02:10.532Z,998.28
2022-08-19T03:03:10.616Z,998.30
2022-08-19T03:04:10.723Z,998.31
2022-08-19T03:05:10.821Z,998.29
2022-08-19T03:06:10.888Z,998.26
2022-08-19T03:07:11.452Z,998.28
2022-08-19T03:08:11.059Z,998.27
2022-08-19T03:09:11.120Z,998.32
2022-08-19T03:10:11.248Z,998.32
2022-08-19T03:11:11.287Z,998.29
2022-08-19T03:12:11.390Z,998.32
2022-08-19T03:13:11.467Z,998.37
2022-08-19T03:14:11.551Z,998.40
2022-08-19T03:15:11.639Z,998.42
2022-08-19T03:16:11.707Z,998.41
2022-08-19T03:17:11.784Z,998.42
2022-08-19T03:18:11.887Z,998.38
2022-08-19T03:19:11.968Z,998.37
2022-08-19T03:20:12.077Z,998.39
2022-08-19T03:21:12.561Z,998.42
2022-08-19T03:22:12.209Z,998.38
2022-08-19T03:23:12.285Z,998.39
2022-08-19T03:24:12.392Z,998.39
2022-08-19T03:25:12.470Z,998.39
2022-08-19T03:26:16.612Z,998.43
2022-08-19T03:27:12.617Z,998.43
2022-08-19T03:28:12.715Z,998.44
2022-08-19T03:29:13.194Z,998.49
2022-08-19T03:30:12.893Z,998.49
2022-08-19T03:31:43.424Z,998.49
2022-08-19T03:32:31.663Z,998.50
2022-08-19T03:33:15.850Z,998.50
2022-08-19T03:34:13.196Z,998.50
2022-08-19T03:35:13.256Z,998.49
2022-08-19T03:36:13.328Z,998.47
2022-08-19T03:37:13.433Z,998.47
2022-08-19T03:38:13.486Z,998.51
2022-08-19T03:39:13.563Z,998.52
2022-08-19T03:40:16.471Z,998.57
2022-08-19T03:41:13.742Z,998.55
2022-08-19T03:42:38.841Z,998.57
2022-08-19T03:43:13.936Z,998.58
2022-08-19T03:44:17.702Z,998.62
2022-08-19T03:45:14.081Z,998.59
2022-08-19T03:46:14.161Z,998.56
2022-08-19T03:47:14.237Z,998.58
2022-08-19T03:48:14.328Z,998.58
2022-08-19T03:49:14.743Z,998.60
2022-08-19T03:50:14.515Z,998.56
2022-08-19T03:51:14.563Z,998.53
2022-08-19T03:52:14.672Z,998.55
2022-08-19T03:53:14.750Z,998.53
2022-08-19T03:54:14.855Z,998.50
2022-08-19T03:55:14.954Z,998.47
2022-08-19T03:56:15.025Z,998.50
2022-08-19T03:57:15.101Z,998.50
2022-08-19T03:58:15.207Z,998.46
2022-08-19T03:59:15.282Z,998.48
2022-08-19T04:00:15.398Z,998.52
2022-08-19T04:01:15.545Z,998.51
2022-08-19T04:02:15.568Z,998.47
2022-08-19T04:03:15.641Z,998.49
2022-08-19T04:04:15.722Z,998.53
2022-08-19T04:05:15.808Z,998.56
2022-08-19T04:06:15.878Z,998.57
2022-08-19T04:07:15.950Z,998.58
2022-08-19T04:08:16.063Z,998.59
2022-08-19T04:09:16.136Z,998.59
2022-08-19T04:10:16.267Z,998.59
2022-08-19T04:11:16.326Z,998.63
2022-08-19T04:12:16.425Z,998.63
2022-08-19T04:13:16.500Z,998.63
2022-08-19T04:14:16.614Z,998.66
2022-08-19T04:15:16.713Z,998.70
2022-08-19T04:16:16.774Z,998.69
2022-08-19T04:17:16.855Z,998.68
2022-08-19T04:18:16.919Z,998.71
2022-08-19T04:19:16.989Z,998.79
2022-08-19T04:20:17.102Z,998.76
2022-08-19T04:21:17.136Z,998.79
2022-08-19T04:22:17.237Z,998.77
2022-08-19T04:23:17.312Z,998.75
2022-08-19T04:24:17.399Z,998.77
2022-08-19T04:25:17.489Z,998.77
2022-08-19T04:26:17.562Z,998.79
2022-08-19T04:27:17.636Z,998.78
2022-08-19T04:28:17.737Z,998.73
2022-08-19T04:29:17.813Z,998.72
2022-08-19T04:30:17.916Z,998.72
2022-08-19T04:31:17.984Z,998.75
2022-08-19T04:32:18.084Z,998.72
2022-08-19T04:33:18.132Z,998.71
2022-08-19T04:34:18.236Z,998.72
2022-08-19T04:35:21.013Z,998.69
2022-08-19T04:36:18.403Z,998.69
2022-08-19T04:37:18.481Z,998.69
2022-08-19T04:38:18.571Z,998.66
2022-08-19T04:39:18.647Z,998.65
2022-08-19T04:40:18.776Z,998.65
2022-08-19T04:41:18.819Z,998.64
2022-08-19T04:42:18.911Z,998.65
2022-08-19T04:43:18.986Z,998.67
2022-08-19T04:44:19.091Z,998.72
2022-08-19T04:45:19.437Z,998.70
2022-08-19T04:46:39.416Z,998.72
2022-08-19T04:47:19.347Z,998.72
2022-08-19T04:48:26.207Z,998.72
2022-08-19T04:49:19.502Z,998.74
2022-08-19T04:50:19.599Z,998.74
2022-08-19T04:51:19.634Z,998.74
2022-08-19T04:52:19.699Z,998.78
2022-08-19T04:53:19.771Z,998.78
2022-08-19T04:54:31.015Z,998.77
2022-08-19T04:55:19.973Z,998.78
2022-08-19T04:56:20.034Z,998.79
2022-08-19T04:57:20.108Z,998.79
2022-08-19T04:58:20.190Z,998.83
2022-08-19T04:59:20.273Z,998.84
2022-08-19T05:00:20.369Z,998.85
2022-08-19T05:01:20.470Z,998.88
2022-08-19T05:02:20.505Z,998.90
2022-08-19T05:03:20.588Z,998.92
2022-08-19T05:04:21.437Z,998.96
2022-08-19T05:05:20.798Z,998.96
2022-08-19T05:06:20.798Z,998.99
2022-08-19T05:07:20.913Z,998.95
2022-08-19T05:08:31.075Z,999.01
2022-08-19T05:09:21.078Z,999.02
2022-08-19T05:10:21.176Z,999.07
2022-08-19T05:11:25.888Z,999.03
2022-08-19T05:12:21.310Z,999.05
2022-08-19T05:13:21.380Z,999.05
2022-08-19T05:14:21.455Z,999.03
2022-08-19T05:15:21.572Z,999.03
2022-08-19T05:16:21.647Z,999.00
2022-08-19T05:17:27.543Z,999.00
2022-08-19T05:18:21.822Z,999.02
2022-08-19T05:19:21.890Z,999.03
2022-08-19T05:20:21.982Z,999.02
2022-08-19T05:21:22.047Z,999.02
2022-08-19T05:22:22.092Z,999.02
2022-08-19T05:23:22.929Z,999.07
2022-08-19T05:24:22.245Z,999.05
2022-08-19T05:25:22.370Z,999.11
2022-08-19T05:26:22.403Z,999.14
2022-08-19T05:27:22.489Z,999.12
2022-08-19T05:28:22.554Z,999.14
2022-08-19T05:29:22.648Z,999.19
2022-08-19T05:30:33.545Z,999.20
2022-08-19T05:31:22.810Z,999.26
2022-08-19T05:32:22.885Z,999.25
2022-08-19T05:33:22.966Z,999.30
2022-08-19T05:34:23.041Z,999.31
2022-08-19T05:35:23.129Z,999.27
2022-08-19T05:36:23.167Z,999.22
2022-08-19T05:37:23.280Z,999.24
2022-08-19T05:38:23.347Z,999.23
2022-08-19T05:39:23.457Z,999.25
2022-08-19T05:40:23.599Z,999.23
2022-08-19T05:41:23.611Z,999.21
2022-08-19T05:42:23.703Z,999.23
2022-08-19T05:43:23.781Z,999.24
2022-08-19T05:44:23.851Z,999.22
2022-08-19T05:45:23.976Z,999.22
2022-08-19T05:46:28.068Z,999.25
2022-08-19T05:47:24.361Z,999.26
2022-08-19T05:48:24.205Z,999.21
2022-08-19T05:49:24.306Z,999.26
2022-08-19T05:50:24.405Z,999.28
2022-08-19T05:51:28.836Z,999.29
2022-08-19T05:52:25.998Z,999.31
2022-08-19T05:53:24.629Z,999.34
2022-08-19T05:54:24.718Z,999.31
2022-08-19T05:55:24.801Z,999.32
2022-08-19T05:56:24.835Z,999.32
2022-08-19T05:57:24.959Z,999.29
2022-08-19T05:58:25.016Z,999.28
2022-08-19T05:59:25.095Z,999.21
2022-08-19T06:00:25.166Z,999.26
2022-08-19T06:01:25.228Z,999.22
2022-08-19T06:02:25.329Z,999.20
2022-08-19T06:03:25.369Z,999.16
2022-08-19T06:04:25.442Z,999.17
2022-08-19T06:05:25.562Z,999.14
2022-08-19T06:06:25.601Z,999.15
2022-08-19T06:07:25.860Z,999.15
2022-08-19T06:08:33.790Z,999.14
2022-08-19T06:09:25.837Z,999.13
2022-08-19T06:10:25.935Z,999.19
2022-08-19T06:11:25.997Z,999.20
2022-08-19T06:12:26.088Z,999.19
2022-08-19T06:13:26.174Z,999.22
2022-08-19T06:14:28.018Z,999.22
2022-08-19T06:15:26.368Z,999.24
2022-08-19T06:16:26.402Z,999.25
2022-08-19T06:17:26.510Z,999.25
2022-08-19T06:18:26.570Z,999.22
2022-08-19T06:19:26.641Z,999.22
2022-08-19T06:20:54.101Z,999.26
2022-08-19T06:21:26.805Z,999.24
2022-08-19T06:22:26.883Z,999.23
2022-08-19T06:23:26.987Z,999.18
2022-08-19T06:24:27.073Z,999.21
2022-08-19T06:25:30.479Z,999.23
2022-08-19T06:26:27.233Z,999.26
2022-08-19T06:27:27.327Z,999.24
2022-08-19T06:28:27.406Z,999.22
2022-08-19T06:29:27.498Z,999.25
2022-08-19T06:30:27.589Z,999.26
2022-08-19T06:31:27.660Z,999.33
2022-08-19T06:32:27.726Z,999.28
2022-08-19T06:33:27.825Z,999.24
2022-08-19T06:34:27.899Z,999.32
2022-08-19T06:35:27.987Z,999.29
2022-08-19T06:36:28.060Z,999.28
2022-08-19T06:37:28.166Z,999.31
2022-08-19T06:38:28.201Z,999.29
2022-08-19T06:39:28.300Z,999.25
2022-08-19T06:40:28.402Z,999.23
2022-08-19T06:41:28.453Z,999.22
2022-08-19T06:42:28.537Z,999.20
2022-08-19T06:43:29.194Z,999.25
2022-08-19T06:44:28.702Z,999.25
2022-08-19T06:45:34.585Z,999.31
2022-08-19T06:46:28.862Z,999.28
2022-08-19T06:47:29.200Z,999.24
2022-08-19T06:48:29.030Z,999.25
2022-08-19T06:49:29.114Z,999.23
2022-08-19T06:50:29.213Z,999.30
2022-08-19T06:51:29.279Z,999.26
2022-08-19T06:52:29.371Z,999.29
2022-08-19T06:53:29.536Z,999.28
2022-08-19T06:54:30.823Z,999.28
2022-08-19T06:55:29.659Z,999.29
2022-08-19T06:56:29.696Z,999.29
2022-08-19T06:57:29.798Z,999.33
2022-08-19T06:58:29.857Z,999.32
2022-08-19T06:59:29.940Z,999.35
2022-08-19T07:01:30.109Z,999.38
2022-08-19T07:02:30.181Z,999.38
2022-08-19T07:03:30.275Z,999.37
2022-08-19T07:04:30.748Z,999.41
2022-08-19T07:05:30.465Z,999.40
2022-08-19T07:06:43.424Z,999.45
2022-08-19T07:07:30.607Z,999.45
2022-08-19T07:08:30.801Z,999.42
2022-08-19T07:09:30.771Z,999.42
2022-08-19T07:10:30.874Z,999.42
2022-08-19T07:11:30.931Z,999.49
2022-08-19T07:12:31.052Z,999.51
2022-08-19T07:13:31.105Z,999.52
2022-08-19T07:14:31.184Z,999.49
2022-08-19T07:15:31.289Z,999.46
2022-08-19T07:16:31.386Z,999.53
2022-08-19T07:17:31.426Z,999.54
2022-08-19T07:18:31.543Z,999.48
2022-08-19T07:19:31.575Z,999.53
2022-08-19T07:20:31.663Z,999.50
2022-08-19T07:21:31.731Z,999.47
2022-08-19T07:22:31.820Z,999.50
2022-08-19T07:23:31.936Z,999.48
2022-08-19T07:24:33.707Z,999.52
2022-08-19T07:25:33.377Z,999.53
2022-08-19T07:26:32.159Z,999.54
2022-08-19T07:27:33.639Z,999.51
2022-08-19T07:28:32.330Z,999.56
2022-08-19T07:29:32.430Z,999.55
2022-08-19T07:30:32.526Z,999.56
2022-08-19T07:31:32.613Z,999.55
2022-08-19T07:32:32.727Z,999.51
2022-08-19T07:33:32.773Z,999.58
2022-08-19T07:34:32.824Z,999.58
2022-08-19T07:35:32.950Z,999.56
2022-08-19T07:36:32.992Z,999.55
2022-08-19T07:37:33.634Z,999.57
2022-08-19T07:38:33.158Z,999.57
2022-08-19T07:39:33.285Z,999.58
2022-08-19T07:40:33.355Z,999.63
2022-08-19T07:41:33.425Z,999.63
2022-08-19T07:42:33.496Z,999.59
2022-08-19T07:43:35.205Z,999.57
2022-08-19T07:44:33.740Z,999.61
2022-08-19T07:45:33.778Z,999.61
2022-08-19T07:46:33.846Z,999.64
2022-08-19T07:47:48.841Z,999.66
2022-08-19T07:48:34.031Z,999.62
2022-08-19T07:49:34.141Z,999.64
2022-08-19T07:50:34.238Z,999.71
2022-08-19T07:51:36.307Z,999.69
2022-08-19T07:52:34.375Z,999.68
2022-08-19T07:53:39.149Z,999.70
2022-08-19T07:54:34.540Z,999.71
2022-08-19T07:55:41.929Z,999.72
2022-08-19T07:56:34.702Z,999.67
2022-08-19T07:57:34.857Z,999.78
2022-08-19T07:58:34.854Z,999.79
2022-08-19T07:59:34.927Z,999.82
2022-08-19T08:00:35.046Z,999.80
2022-08-19T08:01:35.149Z,999.82
2022-08-19T08:02:35.221Z,999.76
2022-08-19T08:03:35.294Z,999.81
2022-08-19T08:04:35.381Z,999.78
2022-08-19T08:05:35.745Z,999.83
2022-08-19T08:06:35.545Z,999.82
2022-08-19T08:07:35.617Z,999.87
2022-08-19T08:08:35.704Z,999.89
2022-08-19T08:09:35.777Z,999.90
2022-08-19T08:10:35.973Z,999.92
2022-08-19T08:11:35.935Z,999.91
2022-08-19T08:12:36.020Z,999.96
2022-08-19T08:13:36.092Z,999.94
2022-08-19T08:14:36.193Z,999.96
2022-08-19T08:15:41.378Z,999.98
2022-08-19T08:16:39.529Z,999.92
2022-08-19T08:17:48.853Z,999.92
2022-08-19T08:18:36.503Z,999.90
2022-08-19T08:19:36.578Z,999.96
2022-08-19T08:20:36.697Z,999.99
2022-08-19T08:21:36.776Z,999.94
2022-08-19T08:22:36.859Z,999.99
2022-08-19T08:23:36.930Z,999.93
2022-08-19T08:24:37.021Z,999.92
2022-08-19T08:25:37.108Z,1000.00
2022-08-19T08:26:37.182Z,999.97
2022-08-19T08:27:37.234Z,999.97
2022-08-19T08:28:37.306Z,1000.04
2022-08-19T08:29:37.380Z,1000.00
2022-08-19T08:30:37.499Z,999.97
2022-08-19T08:31:37.540Z,1000.02
2022-08-19T08:32:37.637Z,999.93
2022-08-19T08:33:37.706Z,999.84
2022-08-19T08:34:37.783Z,999.90
2022-08-19T08:35:37.867Z,999.95
2022-08-19T08:36:37.936Z,999.95
2022-08-19T08:37:38.025Z,999.96
2022-08-19T08:38:40.283Z,999.97
2022-08-19T08:39:38.211Z,999.99
2022-08-19T08:40:38.275Z,1000.01
2022-08-19T08:41:38.306Z,1000.00
2022-08-19T08:42:38.402Z,1000.00
2022-08-19T08:43:38.480Z,1000.00
2022-08-19T08:44:38.580Z,999.98
2022-08-19T08:45:40.892Z,999.99
2022-08-19T08:46:38.759Z,999.96
2022-08-19T08:47:38.830Z,999.92
2022-08-19T08:48:38.937Z,999.98
2022-08-19T08:49:39.014Z,999.92
2022-08-19T08:50:39.115Z,999.97
2022-08-19T08:51:39.146Z,999.97
2022-08-19T08:52:39.444Z,999.97
2022-08-19T08:53:41.767Z,1000.01
2022-08-19T08:54:39.415Z,999.99
2022-08-19T08:55:39.510Z,1000.01
2022-08-19T08:56:39.591Z,1000.01
2022-08-19T08:57:41.046Z,1000.00
2022-08-19T08:58:39.757Z,999.98
2022-08-19T08:59:39.834Z,999.96
2022-08-19T09:00:39.963Z,999.96
2022-08-19T09:01:40.022Z,999.99
2022-08-19T09:02:40.085Z,999.96
2022-08-19T09:03:40.161Z,999.92
2022-08-19T09:04:40.255Z,999.92
2022-08-19T09:05:48.373Z,999.94
2022-08-19T09:06:40.673Z,999.98
2022-08-19T09:07:42.787Z,1000.00
2022-08-19T09:08:40.554Z,999.97
2022-08-19T09:09:42.076Z,999.97
2022-08-19T09:10:44.710Z,999.94
2022-08-19T09:11:42.585Z,999.98
2022-08-19T09:12:42.866Z,999.97
2022-08-19T09:13:40.976Z,1000.00
2022-08-19T09:14:50.130Z,999.93
2022-08-19T09:15:41.296Z,999.97
2022-08-19T09:16:41.214Z,999.93
2022-08-19T09:17:41.315Z,999.90
2022-08-19T09:18:41.376Z,999.96
2022-08-19T09:19:41.475Z,999.93
2022-08-19T09:20:41.575Z,999.87
2022-08-19T09:21:41.622Z,999.90
2022-08-19T09:22:41.699Z,999.90
2022-08-19T09:23:41.794Z,999.93
2022-08-19T09:24:41.855Z,999.93
2022-08-19T09:25:41.970Z,999.89
2022-08-19T09:26:48.676Z,999.91
2022-08-19T09:27:43.614Z,999.88
2022-08-19T09:28:42.209Z,999.90
2022-08-19T09:29:42.308Z,999.88
2022-08-19T09:30:42.397Z,999.87
2022-08-19T09:31:42.484Z,999.89
2022-08-19T09:32:42.558Z,999.87
2022-08-19T09:33:42.642Z,999.87
2022-08-19T09:34:44.026Z,999.82
2022-08-19T09:35:43.873Z,999.88
2022-08-19T09:36:42.904Z,999.85
2022-08-19T09:37:51.778Z,999.81
2022-08-19T09:38:43.484Z,999.86
2022-08-19T09:39:43.232Z,999.82
2022-08-19T09:40:43.262Z,999.91
2022-08-19T09:41:47.443Z,999.91
2022-08-19T09:42:50.169Z,999.89
2022-08-19T09:43:44.252Z,999.86
2022-08-19T09:44:43.609Z,999.83
2022-08-19T09:45:43.690Z,999.83
2022-08-19T09:46:43.762Z,999.81
2022-08-19T09:47:43.865Z,999.79
2022-08-19T09:48:43.936Z,999.80
2022-08-19T09:49:44.034Z,999.76
2022-08-19T09:50:51.414Z,999.71
2022-08-19T09:51:46.836Z,999.76
2022-08-19T09:52:55.613Z,999.80
2022-08-19T09:53:44.353Z,999.86
2022-08-19T09:54:44.420Z,999.84
2022-08-19T09:55:44.540Z,999.82
2022-08-19T09:56:44.595Z,999.81
2022-08-19T09:57:44.697Z,999.75
2022-08-19T09:58:44.769Z,999.82
2022-08-19T09:59:44.868Z,999.68
2022-08-19T10:00:44.938Z,999.83
2022-08-19T10:01:45.069Z,999.82
2022-08-19T10:02:45.828Z,999.74
2022-08-19T10:03:45.169Z,999.70
2022-08-19T10:04:45.245Z,999.72
2022-08-19T10:05:45.359Z,999.67
2022-08-19T10:06:46.902Z,999.63
2022-08-19T10:07:45.504Z,999.65
2022-08-19T10:08:50.180Z,999.71
2022-08-19T10:09:45.679Z,999.72
2022-08-19T10:10:46.358Z,999.74
2022-08-19T10:11:52.692Z,999.68
2022-08-19T10:12:45.940Z,999.73
2022-08-19T10:13:46.043Z,999.72
2022-08-19T10:14:46.115Z,999.79
2022-08-19T10:15:48.088Z,999.72
2022-08-19T10:16:46.285Z,999.73
2022-08-19T10:17:47.586Z,999.79
2022-08-19T10:18:49.605Z,999.73
2022-08-19T10:19:55.638Z,999.73
2022-08-19T10:20:46.666Z,999.73
2022-08-19T10:21:46.741Z,999.67
2022-08-19T10:22:46.810Z,999.65
2022-08-19T10:23:46.915Z,999.67
2022-08-19T10:24:46.987Z,999.64
2022-08-19T10:25:47.076Z,999.66
2022-08-19T10:26:47.133Z,999.68
2022-08-19T10:27:51.472Z,999.65
2022-08-19T10:28:47.314Z,999.69
2022-08-19T10:29:47.407Z,999.57
2022-08-19T10:30:47.500Z,999.58
2022-08-19T10:32:01.058Z,999.69
2022-08-19T10:32:47.662Z,999.67
2022-08-19T10:33:53.573Z,999.69
2022-08-19T10:34:48.205Z,999.65
2022-08-19T10:35:56.841Z,999.60
2022-08-19T10:36:53.786Z,999.58
2022-08-19T10:37:57.237Z,999.55
2022-08-19T10:38:53.464Z,999.56
2022-08-19T10:39:48.295Z,999.48
2022-08-19T10:40:48.338Z,999.47
2022-08-19T10:41:48.405Z,999.53
2022-08-19T10:42:48.476Z,999.56
2022-08-19T10:43:48.578Z,999.59
2022-08-19T10:44:48.655Z,999.50
2022-08-19T10:45:52.660Z,999.60
2022-08-19T10:46:49.009Z,999.65
2022-08-19T10:47:48.905Z,999.60
2022-08-19T10:48:48.943Z,999.55
2022-08-19T10:49:49.028Z,999.58
2022-08-19T10:50:49.138Z,999.55
2022-08-19T10:51:49.188Z,999.51
2022-08-19T10:52:50.606Z,999.51
2022-08-19T10:53:49.360Z,999.56
2022-08-19T10:54:49.427Z,999.54
2022-08-19T10:55:49.544Z,999.52
2022-08-19T10:56:49.617Z,999.44
2022-08-19T10:58:02.165Z,999.48
2022-08-19T10:58:49.807Z,999.44
2022-08-19T10:59:49.879Z,999.45
2022-08-19T11:00:50.015Z,999.48
2022-08-19T11:01:50.042Z,999.47
2022-08-19T11:02:50.134Z,999.51
2022-08-19T11:03:50.306Z,999.51
2022-08-19T11:04:50.298Z,999.51
2022-08-19T11:05:50.417Z,999.52
2022-08-19T11:06:50.482Z,999.48
2022-08-19T11:07:50.585Z,999.48
2022-08-19T11:08:50.653Z,999.46
2022-08-19T11:09:50.742Z,999.47
2022-08-19T11:10:50.827Z,999.52
2022-08-19T11:11:50.909Z,999.42
2022-08-19T11:12:50.987Z,999.42
2022-08-19T11:13:51.086Z,999.38
2022-08-19T11:14:51.158Z,999.38
2022-08-19T11:15:51.272Z,999.34
2022-08-19T11:16:51.339Z,999.36
2022-08-19T11:17:51.436Z,999.33
2022-08-19T11:18:51.516Z,999.28
2022-08-19T11:19:51.603Z,999.38
2022-08-19T11:20:51.675Z,999.31
2022-08-19T11:21:51.744Z,999.27
2022-08-19T11:22:51.814Z,999.28
2022-08-19T11:23:51.914Z,999.27
2022-08-19T11:24:51.984Z,999.25
2022-08-19T11:25:52.089Z,999.31
2022-08-19T11:26:52.153Z,999.29
2022-08-19T11:27:52.372Z,999.24
2022-08-19T11:28:52.315Z,999.33
2022-08-19T11:29:52.414Z,999.30
2022-08-19T11:30:52.499Z,999.34
2022-08-19T11:31:52.566Z,999.29
2022-08-19T11:32:52.637Z,999.30
2022-08-19T11:33:52.738Z,999.32
2022-08-19T11:34:52.814Z,999.33
2022-08-19T11:35:52.927Z,999.33
2022-08-19T11:36:53.001Z,999.34
2022-08-19T11:37:53.356Z,999.32
2022-08-19T11:38:53.156Z,999.33
2022-08-19T11:39:53.638Z,999.24
2022-08-19T11:40:53.328Z,999.25
2022-08-19T11:41:53.401Z,999.29
2022-08-19T11:42:53.465Z,999.27
2022-08-19T11:43:53.565Z,999.26
2022-08-19T11:44:53.635Z,999.24
2022-08-19T11:45:53.743Z,999.24
2022-08-19T11:46:53.809Z,999.23
2022-08-19T11:47:54.147Z,999.22
2022-08-19T11:48:53.967Z,999.24
2022-08-19T11:49:54.061Z,999.24
2022-08-19T11:50:54.184Z,999.27
2022-08-19T11:51:54.248Z,999.25
2022-08-19T11:52:54.318Z,999.20
2022-08-19T11:53:54.418Z,999.21
2022-08-19T11:54:54.488Z,999.17
2022-08-19T11:55:54.597Z,999.17
2022-08-19T11:56:54.665Z,999.24
2022-08-19T11:57:54.910Z,999.22
2022-08-19T11:58:54.835Z,999.24
2022-08-19T11:59:54.921Z,999.23
2022-08-19T12:00:54.986Z,999.21
2022-08-19T12:01:55.056Z,999.25
2022-08-19T12:02:55.122Z,999.24
2022-08-19T12:03:55.231Z,999.25
2022-08-19T12:04:55.295Z,999.26
2022-08-19T12:05:55.417Z,999.18
2022-08-19T12:06:55.452Z,999.21
2022-08-19T12:07:55.789Z,999.22
2022-08-19T12:08:55.624Z,999.22
2022-08-19T12:09:55.714Z,999.22
2022-08-19T12:10:55.800Z,999.26
2022-08-19T12:11:55.866Z,999.24
2022-08-19T12:12:59.011Z,999.20
2022-08-19T12:13:56.026Z,999.24
2022-08-19T12:14:56.098Z,999.19
2022-08-19T12:15:56.220Z,999.18
2022-08-19T12:16:56.255Z,999.10
2022-08-19T12:17:56.354Z,999.17
2022-08-19T12:18:56.425Z,999.16
2022-08-19T12:19:56.522Z,999.18
2022-08-19T12:20:56.616Z,999.17
2022-08-19T12:21:56.683Z,999.20
2022-08-19T12:22:56.755Z,999.20
2022-08-19T12:23:56.854Z,999.19
2022-08-19T12:24:56.924Z,999.17
2022-08-19T12:25:57.038Z,999.19
2022-08-19T12:26:57.103Z,999.15
2022-08-19T12:27:57.822Z,999.18
2022-08-19T12:28:57.287Z,999.18
2022-08-19T12:29:57.379Z,999.16
2022-08-19T12:30:57.459Z,999.17